McDonogh Run, Maryland
Current Conditions -  °F | °C
As of 3:54 AM on Thursday 18 Dec 2014 (Local Time) from KBWI Reporting Station
Broken Clouds Broken Clouds  
Wind Chill: 30°   Ceiling: 4800
Heat Index: 37°   Visibility: 10mi
Dew Point: 20°   Wind: 9mph
Humidity: 50%   Direction: 290°WNW
Pressure: 30.07"   Gusts: NA
Location:  39.3744°N, 76.8156°W
Report Text: KBWI 180854Z 29008KT 10SM BKN048 03/M07 A3007 RMK AO2 SLP184 T00281067 51008
Loading
Personal Weather Stations






























Interactive Weather Map New forecast layout! Learn more

10-Day Weather Forecast

Advertisements
Track Severe Weather on mobile